Time;durP1;ratioP1;P1;durP2;ratioP2;P2;SDS_P1;SDS_P2;PMS_P1;PMS_P2;Temp;Humidity;BMP_temperature;BMP_pressure;BME280_temperature;BME280_humidity;BME280_pressure;Samples;Min_cycle;Max_cycle;Signal;HPM_P1;HPM_P2
2022/04/14 00:00:33;;;;;;;42.80;37.03;;;28.40;98.50;;;;;;4195166;28;20206;-70
2022/04/14 00:02:39;;;;;;;42.38;36.38;;;28.40;98.30;;;;;;4208698;28;20082;-71
2022/04/14 00:04:45;;;;;;;39.13;34.85;;;28.30;98.30;;;;;;4209267;28;20063;-72
2022/04/14 00:06:53;;;;;;;39.55;34.28;;;28.30;98.40;;;;;;4210302;28;20093;-73
2022/04/14 00:08:58;;;;;;;39.65;35.33;;;28.40;98.30;;;;;;4208460;28;20048;-71
2022/04/14 00:11:02;;;;;;;45.67;37.55;;;28.40;98.20;;;;;;4209346;28;20056;-72
2022/04/14 00:13:08;;;;;;;48.42;39.95;;;28.50;98.30;;;;;;4208510;28;20044;-72
2022/04/14 00:15:14;;;;;;;48.15;39.25;;;28.50;97.90;;;;;;4209448;28;20052;-72
2022/04/14 00:17:19;;;;;;;44.70;38.40;;;28.60;97.90;;;;;;4209703;28;20052;-72
2022/04/14 00:19:27;;;;;;;42.78;36.63;;;28.70;98.00;;;;;;4207389;28;20052;-71
2022/04/14 00:21:36;;;;;;;40.75;34.80;;;28.70;97.80;;;;;;4211814;28;20044;-66
2022/04/14 00:23:41;;;;;;;40.10;35.67;;;28.70;97.70;;;;;;4211911;28;20040;-70
2022/04/14 00:25:51;;;;;;;42.08;36.38;;;28.80;97.80;;;;;;4191020;28;20052;-71
2022/04/14 00:27:56;;;;;;;42.20;36.15;;;28.90;98.00;;;;;;4209785;28;20055;-71
2022/04/14 00:30:01;;;;;;;47.67;38.50;;;28.90;98.10;;;;;;4211273;28;20060;-70
2022/04/14 00:32:11;;;;;;;39.08;34.38;;;28.90;97.90;;;;;;4211850;28;20164;-70
2022/04/14 00:34:18;;;;;;;40.42;35.92;;;28.90;97.90;;;;;;4211081;28;20062;-70
2022/04/14 00:36:22;;;;;;;40.72;35.55;;;28.90;97.90;;;;;;4210522;28;20060;-69
2022/04/14 00:38:29;;;;;;;38.63;34.53;;;29.00;97.70;;;;;;4211463;28;20158;-71
2022/04/14 00:40:34;;;;;;;37.17;33.17;;;29.10;97.50;;;;;;4210360;28;20051;-69
2022/04/14 00:42:39;;;;;;;38.20;33.38;;;29.10;97.10;;;;;;4207173;28;20044;-70
2022/04/14 00:44:48;;;;;;;37.63;33.63;;;29.10;96.90;;;;;;4211702;28;20032;-70
2022/04/14 00:46:53;;;;;;;37.45;33.22;;;29.20;96.70;;;;;;4211552;28;20480;-70
2022/04/14 00:48:58;;;;;;;35.92;32.28;;;29.30;96.60;;;;;;4212130;28;20105;-69
2022/04/14 00:51:07;;;;;;;33.42;29.95;;;29.30;96.40;;;;;;4193454;28;20082;-70
2022/04/14 00:53:14;;;;;;;36.55;31.25;;;29.30;96.10;;;;;;4194355;28;20044;-72
2022/04/14 00:55:19;;;;;;;35.08;31.27;;;29.40;96.10;;;;;;4193231;28;20550;-70
2022/04/14 00:57:26;;;;;;;35.42;31.30;;;29.40;96.20;;;;;;4192519;28;20041;-70
2022/04/14 00:59:31;;;;;;;33.42;29.95;;;29.40;96.10;;;;;;4192193;28;20138;-70
2022/04/14 01:01:36;;;;;;;34.97;31.27;;;29.40;96.10;;;;;;4189900;28;20044;-70
2022/04/14 01:03:45;;;;;;;35.35;31.58;;;29.50;96.00;;;;;;4192202;28;20064;-70
2022/04/14 01:05:50;;;;;;;35.03;30.17;;;29.50;96.00;;;;;;4175512;28;20065;-70
2022/04/14 01:07:59;;;;;;;34.30;30.67;;;29.50;96.10;;;;;;4189811;28;20434;-70
2022/04/14 01:10:05;;;;;;;34.17;30.77;;;29.60;96.10;;;;;;4176400;28;20508;-70
2022/04/14 01:12:12;;;;;;;32.63;29.23;;;29.60;96.00;;;;;;4192385;28;20902;-71
2022/04/14 01:14:29;;;;;;;33.85;28.63;;;29.70;96.20;;;;;;4192568;28;20128;-71
2022/04/14 01:16:38;;;;;;;32.88;29.05;;;29.80;96.00;;;;;;4188345;28;20056;-69
2022/04/14 01:18:43;;;;;;;32.63;29.38;;;29.80;95.80;;;;;;4194624;28;20045;-68
2022/04/14 01:20:48;;;;;;;40.13;28.42;;;29.90;95.90;;;;;;4192569;28;20048;-68
2022/04/14 01:22:57;;;;;;;37.38;29.52;;;29.90;95.80;;;;;;4202076;28;20072;-69
2022/04/14 01:25:04;;;;;;;81.78;44.65;;;29.90;95.90;;;;;;4212744;28;20456;-69
2022/04/14 01:27:10;;;;;;;47.58;34.78;;;30.00;95.80;;;;;;4192762;28;20059;-67
2022/04/14 01:29:24;;;;;;;57.20;40.65;;;30.10;95.50;;;;;;4177137;28;20075;-68
2022/04/14 01:31:30;;;;;;;55.33;43.50;;;30.10;95.30;;;;;;4191269;28;20655;-70
2022/04/14 01:33:35;;;;;;;39.35;33.22;;;30.10;95.10;;;;;;4192657;28;20141;-72
2022/04/14 01:35:40;;;;;;;39.78;34.13;;;30.20;94.90;;;;;;4191777;28;20035;-71
2022/04/14 01:37:46;;;;;;;30.98;27.67;;;30.20;94.80;;;;;;4191493;28;20106;-71
2022/04/14 01:39:50;;;;;;;35.88;32.10;;;30.20;94.70;;;;;;4193078;28;20960;-71
2022/04/14 01:41:59;;;;;;;34.70;30.70;;;30.30;94.70;;;;;;4191957;28;20672;-69
2022/04/14 01:44:05;;;;;;;32.92;28.70;;;30.40;94.60;;;;;;4176028;28;20051;-69
2022/04/14 01:46:10;;;;;;;32.53;28.85;;;30.40;94.50;;;;;;4191926;28;20047;-70
2022/04/14 01:48:19;;;;;;;33.72;29.40;;;30.40;94.50;;;;;;4157749;28;20033;-70
2022/04/14 01:50:24;;;;;;;30.38;27.15;;;30.40;94.40;;;;;;4191840;28;20166;-70
2022/04/14 01:52:30;;;;;;;28.83;25.88;;;30.50;94.30;;;;;;4191414;28;20102;-70
2022/04/14 01:54:39;;;;;;;28.95;25.90;;;30.50;94.50;;;;;;4192350;28;20499;-70
2022/04/14 01:56:46;;;;;;;29.67;26.67;;;30.50;94.50;;;;;;4192823;28;20052;-70
2022/04/14 01:58:52;;;;;;;31.00;27.58;;;30.60;94.50;;;;;;4205507;28;20359;-70
2022/04/14 02:00:59;;;;;;;29.73;26.63;;;30.70;94.50;;;;;;4211867;28;20667;-69
2022/04/14 02:03:05;;;;;;;32.10;26.77;;;30.70;94.50;;;;;;4211663;28;20047;-69
2022/04/14 02:05:15;;;;;;;29.70;26.60;;;30.70;94.40;;;;;;4211125;28;20040;-70
2022/04/14 02:07:25;;;;;;;29.40;26.35;;;30.70;94.30;;;;;;4211721;28;20068;-71
2022/04/14 02:09:32;;;;;;;28.92;25.83;;;30.70;94.30;;;;;;4210728;28;20055;-71
2022/04/14 02:11:37;;;;;;;27.63;24.85;;;30.80;94.10;;;;;;4211999;28;20139;-71
2022/04/14 02:13:46;;;;;;;28.58;25.52;;;30.90;94.10;;;;;;4175678;28;20051;-70
2022/04/14 02:15:52;;;;;;;27.58;24.77;;;30.90;94.00;;;;;;4209725;28;20054;-70
2022/04/14 02:17:58;;;;;;;28.35;25.40;;;30.90;93.80;;;;;;4209581;28;20046;-70
2022/04/14 02:20:06;;;;;;;29.00;25.88;;;31.00;93.70;;;;;;4209524;28;20044;-70
2022/04/14 02:22:16;;;;;;;28.73;25.77;;;31.10;93.50;;;;;;4212141;28;20051;-70
2022/04/14 02:24:23;;;;;;;28.58;25.15;;;31.10;93.20;;;;;;4212357;28;20686;-70
2022/04/14 02:26:30;;;;;;;28.92;25.58;;;31.20;93.20;;;;;;4211706;28;20062;-70
2022/04/14 02:28:36;;;;;;;27.70;24.77;;;31.30;93.20;;;;;;4209495;28;20089;-70
2022/04/14 02:30:41;;;;;;;27.48;24.60;;;31.30;93.10;;;;;;4208814;28;20105;-69
2022/04/14 02:32:50;;;;;;;28.48;25.63;;;31.40;93.10;;;;;;4210491;28;20638;-70
2022/04/14 02:34:56;;;;;;;27.33;24.25;;;31.40;93.10;;;;;;4210562;28;20123;-70
2022/04/14 02:37:02;;;;;;;27.33;24.50;;;31.50;93.30;;;;;;4208981;28;20087;-70
2022/04/14 02:39:15;;;;;;;27.40;24.38;;;31.50;92.90;;;;;;4207355;28;20040;-71
2022/04/14 02:41:21;;;;;;;27.17;24.40;;;31.50;92.80;;;;;;4209276;28;20490;-69
2022/04/14 02:43:26;;;;;;;26.75;23.83;;;31.60;92.70;;;;;;4210047;28;20052;-69
2022/04/14 02:45:35;;;;;;;26.05;23.23;;;31.70;92.70;;;;;;4209723;28;20127;-69
2022/04/14 02:47:41;;;;;;;32.28;23.75;;;31.70;92.80;;;;;;4207373;28;20039;-69
2022/04/14 02:49:47;;;;;;;26.90;23.23;;;31.80;92.80;;;;;;4208574;28;20128;-69
2022/04/14 02:51:55;;;;;;;24.17;21.70;;;31.80;92.40;;;;;;4208239;28;20274;-70
2022/04/14 02:54:00;;;;;;;24.02;21.42;;;31.90;92.10;;;;;;4210976;28;20053;-71
2022/04/14 02:56:09;;;;;;;23.50;21.13;;;32.00;91.90;;;;;;4207739;28;20052;-71
2022/04/14 02:58:16;;;;;;;24.02;21.50;;;32.00;92.00;;;;;;4207901;28;20075;-70
2022/04/14 03:00:22;;;;;;;23.45;21.05;;;32.00;91.70;;;;;;4210124;28;20379;-70
2022/04/14 03:02:28;;;;;;;23.90;21.40;;;32.10;91.40;;;;;;4209302;28;20486;-71
2022/04/14 03:04:35;;;;;;;22.83;20.50;;;32.10;91.40;;;;;;4208245;28;20070;-70
2022/04/14 03:06:41;;;;;;;23.23;20.60;;;32.20;91.30;;;;;;4209413;28;20624;-71
2022/04/14 03:08:46;;;;;;;25.20;21.95;;;32.20;91.30;;;;;;4210407;28;20433;-70
2022/04/14 03:10:55;;;;;;;23.55;21.15;;;32.20;91.60;;;;;;4209347;28;20071;-69
2022/04/14 03:13:02;;;;;;;24.55;21.90;;;32.30;91.30;;;;;;4209930;28;20048;-70
2022/04/14 03:15:09;;;;;;;23.20;20.70;;;32.30;91.00;;;;;;4204656;28;20056;-71
2022/04/14 03:17:18;;;;;;;22.27;20.13;;;32.30;90.90;;;;;;4209052;28;20105;-70
2022/04/14 03:19:27;;;;;;;24.20;20.52;;;32.40;90.90;;;;;;4210712;28;20048;-69
2022/04/14 03:21:32;;;;;;;22.38;20.05;;;32.50;90.80;;;;;;4208545;28;20109;-69
2022/04/14 03:23:44;;;;;;;23.17;20.63;;;32.60;90.60;;;;;;4209262;28;20147;-70
2022/04/14 03:25:49;;;;;;;26.58;21.58;;;32.60;90.40;;;;;;4210824;28;20105;-70
2022/04/14 03:27:56;;;;;;;22.75;20.45;;;32.60;90.40;;;;;;4211039;28;20434;-70
2022/04/14 03:30:06;;;;;;;23.75;21.27;;;32.60;90.30;;;;;;4209626;28;20028;-70
2022/04/14 03:32:13;;;;;;;22.67;20.17;;;32.60;90.10;;;;;;4208651;28;20048;-70
2022/04/14 03:34:18;;;;;;;22.90;20.48;;;32.70;90.40;;;;;;4209649;28;20089;-69
2022/04/14 03:36:30;;;;;;;22.55;20.35;;;32.70;90.60;;;;;;4211014;28;20052;-70
2022/04/14 03:38:35;;;;;;;23.40;20.83;;;32.80;90.50;;;;;;4207412;28;20112;-69
2022/04/14 03:40:40;;;;;;;23.77;21.13;;;32.70;90.40;;;;;;4208411;28;20044;-70
2022/04/14 03:42:50;;;;;;;22.02;19.70;;;32.70;90.40;;;;;;4211067;28;20075;-69
2022/04/14 03:44:57;;;;;;;22.77;20.38;;;32.80;90.20;;;;;;4208546;28;20396;-70
2022/04/14 03:47:03;;;;;;;22.80;20.48;;;32.90;90.10;;;;;;4209745;28;20040;-70
2022/04/14 03:49:13;;;;;;;22.17;19.92;;;33.00;90.00;;;;;;4209625;28;20119;-70
2022/04/14 03:51:18;;;;;;;22.42;20.05;;;33.00;89.90;;;;;;4208355;28;20084;-70
2022/04/14 03:53:25;;;;;;;23.33;20.88;;;33.00;89.40;;;;;;4204977;28;20368;-70
2022/04/14 03:55:33;;;;;;;24.48;21.35;;;33.00;89.10;;;;;;4207631;28;20071;-69
2022/04/14 03:57:38;;;;;;;22.88;20.60;;;33.00;88.60;;;;;;4210370;28;20044;-70
2022/04/14 03:59:44;;;;;;;25.38;21.35;;;33.10;88.30;;;;;;4209949;28;20125;-70
2022/04/14 04:01:52;;;;;;;23.40;20.73;;;33.00;88.10;;;;;;4211876;28;20063;-70
2022/04/14 04:04:02;;;;;;;22.88;20.63;;;33.10;88.30;;;;;;4201807;28;20062;-70
2022/04/14 04:06:11;;;;;;;22.75;20.52;;;33.20;88.90;;;;;;4211607;28;20066;-70
2022/04/14 04:08:20;;;;;;;24.77;21.17;;;33.30;89.40;;;;;;4177054;28;20049;-69
2022/04/14 04:10:28;;;;;;;22.33;19.98;;;33.40;88.50;;;;;;4212424;28;20447;-70
2022/04/14 04:12:35;;;;;;;23.20;20.33;;;33.40;88.20;;;;;;4213943;28;20034;-69
2022/04/14 04:14:44;;;;;;;23.25;20.88;;;33.50;87.90;;;;;;4178386;28;20153;-70
2022/04/14 04:16:50;;;;;;;25.08;20.38;;;33.50;87.40;;;;;;4214013;28;20601;-69
2022/04/14 04:18:56;;;;;;;22.10;19.38;;;33.60;87.40;;;;;;4213435;28;20103;-69
2022/04/14 04:21:06;;;;;;;24.67;19.55;;;33.60;87.40;;;;;;4194394;28;20145;-70
2022/04/14 04:23:14;;;;;;;23.70;20.45;;;33.70;86.80;;;;;;4212251;28;20040;-70
2022/04/14 04:25:19;;;;;;;22.05;19.85;;;33.60;86.90;;;;;;4211753;28;20040;-70
2022/04/14 04:27:30;;;;;;;22.80;20.55;;;33.60;87.30;;;;;;4196861;28;20048;-69
2022/04/14 04:29:35;;;;;;;22.90;20.50;;;33.70;87.50;;;;;;4211195;28;20040;-70
2022/04/14 04:31:40;;;;;;;22.42;20.05;;;33.70;87.30;;;;;;4211621;28;20044;-70
2022/04/14 04:33:51;;;;;;;22.52;20.20;;;33.80;86.80;;;;;;4213393;28;20135;-70
2022/04/14 04:35:56;;;;;;;29.30;20.17;;;33.70;86.70;;;;;;4210614;28;20074;-70
2022/04/14 04:38:01;;;;;;;22.30;20.10;;;33.80;86.40;;;;;;4213838;28;20147;-69
2022/04/14 04:40:09;;;;;;;22.13;19.88;;;33.80;86.80;;;;;;4208678;28;20040;-70
2022/04/14 04:42:14;;;;;;;22.55;20.15;;;33.90;86.40;;;;;;4212903;28;20079;-70
2022/04/14 04:44:19;;;;;;;24.15;20.27;;;33.90;86.60;;;;;;4213553;28;20374;-70
2022/04/14 04:46:26;;;;;;;23.15;20.52;;;33.90;86.70;;;;;;4212841;28;20058;-70
2022/04/14 04:48:32;;;;;;;23.35;19.58;;;34.00;86.30;;;;;;4211237;28;20510;-70
2022/04/14 04:50:36;;;;;;;22.80;20.40;;;34.00;86.90;;;;;;4213177;28;20040;-70
2022/04/14 04:52:45;;;;;;;22.88;20.48;;;34.10;87.20;;;;;;4213013;28;20364;-70
2022/04/14 04:54:50;;;;;;;22.90;20.58;;;34.10;86.80;;;;;;4213521;28;20390;-70
2022/04/14 04:56:54;;;;;;;22.80;20.20;;;34.20;86.50;;;;;;4212617;28;20142;-70
2022/04/14 04:59:02;;;;;;;22.48;20.17;;;34.30;86.10;;;;;;4212773;28;20044;-69
2022/04/14 05:01:09;;;;;;;23.52;19.73;;;34.40;85.60;;;;;;4213348;28;20144;-70
2022/04/14 05:03:13;;;;;;;21.88;19.77;;;34.50;85.30;;;;;;4211021;28;20043;-69
2022/04/14 05:05:27;;;;;;;22.23;19.92;;;34.70;84.90;;;;;;4212719;28;20494;-70
2022/04/14 05:07:33;;;;;;;23.63;21.15;;;34.70;84.90;;;;;;4212940;28;20036;-69
2022/04/14 05:09:37;;;;;;;22.75;20.05;;;34.80;83.90;;;;;;4213227;28;20567;-70
2022/04/14 05:11:44;;;;;;;22.00;19.55;;;34.70;84.80;;;;;;4212324;28;20044;-69
2022/04/14 05:13:48;;;;;;;22.17;19.17;;;34.70;83.80;;;;;;4213324;28;20056;-69
2022/04/14 05:15:53;;;;;;;22.45;20.05;;;34.60;83.80;;;;;;4212981;28;20031;-70
2022/04/14 05:18:03;;;;;;;22.65;20.15;;;34.60;83.70;;;;;;4212938;28;20052;-69
2022/04/14 05:20:10;;;;;;;22.20;19.27;;;34.60;83.50;;;;;;4212948;28;20143;-69
2022/04/14 05:22:14;;;;;;;22.17;19.95;;;34.50;84.00;;;;;;4212434;28;20075;-70
2022/04/14 05:24:24;;;;;;;21.63;19.17;;;34.50;84.40;;;;;;4210436;28;20076;-70
2022/04/14 05:26:29;;;;;;;21.52;19.52;;;34.50;84.60;;;;;;4212706;28;20077;-70
2022/04/14 05:28:34;;;;;;;24.70;21.05;;;34.60;84.40;;;;;;4212723;28;20052;-69
2022/04/14 05:30:41;;;;;;;21.75;19.55;;;34.50;84.60;;;;;;4212406;28;20558;-69
2022/04/14 05:32:46;;;;;;;23.13;20.70;;;34.60;83.80;;;;;;4211922;28;20496;-69
2022/04/14 05:34:51;;;;;;;21.95;19.70;;;34.60;83.70;;;;;;4212336;28;20047;-70
2022/04/14 05:36:59;;;;;;;22.08;19.13;;;34.60;83.70;;;;;;4211643;28;20036;-70
2022/04/14 05:39:03;;;;;;;23.33;19.58;;;34.60;83.80;;;;;;4209179;28;20048;-70
2022/04/14 05:41:10;;;;;;;23.10;20.63;;;34.70;84.00;;;;;;4209993;28;20048;-70
2022/04/14 05:43:23;;;;;;;21.58;19.20;;;34.70;83.90;;;;;;4211045;28;20051;-69
2022/04/14 05:45:28;;;;;;;21.63;19.50;;;34.70;83.60;;;;;;4210613;28;20051;-70
2022/04/14 05:47:32;;;;;;;21.73;19.30;;;34.80;82.90;;;;;;4210863;28;20101;-70
2022/04/14 05:49:39;;;;;;;21.38;19.10;;;35.00;82.60;;;;;;4210902;28;20115;-70
2022/04/14 05:51:44;;;;;;;25.42;19.50;;;35.10;82.40;;;;;;4210278;28;20043;-70
2022/04/14 05:53:53;;;;;;;21.08;19.05;;;35.10;81.90;;;;;;4210882;28;20711;-70
2022/04/14 05:56:02;;;;;;;21.50;19.27;;;35.30;81.70;;;;;;4211714;28;20127;-70
2022/04/14 05:58:08;;;;;;;21.42;19.25;;;35.30;81.80;;;;;;4211009;28;20040;-69
2022/04/14 06:00:14;;;;;;;23.42;19.80;;;35.20;82.10;;;;;;4211683;28;20466;-69
2022/04/14 06:02:23;;;;;;;21.77;19.48;;;35.20;82.70;;;;;;4212541;28;20033;-69
2022/04/14 06:04:28;;;;;;;22.17;19.92;;;35.10;82.40;;;;;;4211445;28;20154;-69
2022/04/14 06:06:33;;;;;;;22.25;19.55;;;35.10;82.50;;;;;;4210650;28;20432;-69
2022/04/14 06:08:43;;;;;;;20.98;18.77;;;35.10;82.70;;;;;;4210281;28;20040;-70
2022/04/14 06:10:48;;;;;;;26.23;19.77;;;35.20;82.50;;;;;;4210959;28;20075;-69
2022/04/14 06:12:56;;;;;;;22.05;19.75;;;35.20;82.50;;;;;;4209195;28;20063;-69
2022/04/14 06:15:06;;;;;;;21.38;19.27;;;35.30;82.30;;;;;;4210765;28;20040;-69
2022/04/14 06:17:12;;;;;;;21.02;18.98;;;35.40;82.30;;;;;;4205133;28;20059;-70
2022/04/14 06:19:19;;;;;;;23.05;20.75;;;35.40;81.80;;;;;;4212522;28;20123;-69
2022/04/14 06:21:28;;;;;;;20.85;18.75;;;35.50;81.30;;;;;;4210934;28;20048;-69
2022/04/14 06:23:33;;;;;;;21.45;19.27;;;35.50;81.20;;;;;;4209370;28;20044;-69
2022/04/14 06:25:39;;;;;;;21.02;18.85;;;35.50;81.00;;;;;;4209788;28;20048;-71
2022/04/14 06:27:48;;;;;;;21.42;19.23;;;35.50;80.20;;;;;;4191527;28;20653;-69
2022/04/14 06:29:53;;;;;;;21.75;19.48;;;35.50;80.10;;;;;;4210594;28;20048;-68
2022/04/14 06:31:59;;;;;;;22.48;19.10;;;35.60;79.60;;;;;;4210807;28;20127;-70
2022/04/14 06:34:10;;;;;;;23.58;19.15;;;35.70;79.50;;;;;;4210562;28;20059;-70
2022/04/14 06:36:16;;;;;;;21.23;19.00;;;35.70;79.40;;;;;;4209886;28;20040;-69
2022/04/14 06:38:24;;;;;;;21.90;19.70;;;35.70;80.20;;;;;;4210890;28;20048;-70
2022/04/14 06:40:34;;;;;;;21.63;19.10;;;35.70;80.50;;;;;;4210508;28;20052;-69
2022/04/14 06:42:39;;;;;;;22.70;19.33;;;35.70;81.10;;;;;;4210884;28;20220;-69
2022/04/14 06:44:43;;;;;;;20.65;18.65;;;35.70;81.50;;;;;;4210599;28;20032;-69
2022/04/14 06:46:50;;;;;;;20.42;18.25;;;35.70;82.10;;;;;;4208774;28;20078;-69
2022/04/14 06:48:57;;;;;;;21.98;19.55;;;35.70;82.00;;;;;;4209171;28;20036;-69
2022/04/14 06:51:03;;;;;;;23.77;19.35;;;35.80;81.80;;;;;;4210449;28;20130;-70
2022/04/14 06:53:12;;;;;;;22.23;19.60;;;35.80;81.80;;;;;;4210655;28;20040;-69
2022/04/14 06:55:17;;;;;;;22.27;19.70;;;35.80;81.20;;;;;;4209402;28;20051;-70
2022/04/14 06:57:23;;;;;;;22.75;20.40;;;35.80;81.60;;;;;;4209434;28;20044;-69
2022/04/14 06:59:31;;;;;;;24.75;18.98;;;35.80;82.10;;;;;;4209095;28;20062;-69
2022/04/14 07:01:36;;;;;;;24.73;19.40;;;35.80;82.40;;;;;;4207584;28;20754;-69
2022/04/14 07:03:42;;;;;;;21.35;19.05;;;35.70;82.90;;;;;;4209439;28;20766;-70
2022/04/14 07:05:54;;;;;;;23.08;19.98;;;35.70;82.90;;;;;;4173511;28;20488;-69
2022/04/14 07:07:59;;;;;;;22.67;20.17;;;35.70;83.20;;;;;;4208466;28;20055;-69
2022/04/14 07:10:05;;;;;;;21.88;19.75;;;35.70;83.30;;;;;;4209164;28;20052;-69
2022/04/14 07:12:13;;;;;;;22.45;19.52;;;35.60;83.60;;;;;;4174057;28;20057;-69
2022/04/14 07:14:19;;;;;;;22.77;20.48;;;35.70;84.20;;;;;;4210085;28;20052;-69
2022/04/14 07:16:25;;;;;;;23.42;20.92;;;35.70;85.10;;;;;;4210118;28;20631;-69
2022/04/14 07:18:34;;;;;;;21.42;19.30;;;35.70;85.30;;;;;;4211574;28;20368;-70
2022/04/14 07:20:39;;;;;;;21.80;19.60;;;35.70;85.40;;;;;;4210738;28;20518;-69
2022/04/14 07:22:52;;;;;;;23.75;21.08;;;35.70;85.00;;;;;;4208056;28;20039;-69
2022/04/14 07:25:15;;;;;;;23.10;20.13;;;35.50;85.10;;;;;;4194850;28;20615;-69
2022/04/14 07:27:21;;;;;;;21.30;19.25;;;35.60;85.40;;;;;;4210095;28;20055;-69
2022/04/14 07:29:26;;;;;;;21.88;19.33;;;35.60;85.00;;;;;;4211793;28;20099;-70
2022/04/14 07:31:36;;;;;;;23.08;19.58;;;35.60;84.80;;;;;;4209195;28;20067;-69
2022/04/14 07:33:43;;;;;;;22.88;20.45;;;35.60;84.30;;;;;;4211456;28;20044;-69
2022/04/14 07:35:50;;;;;;;21.25;19.05;;;35.70;84.50;;;;;;4213283;28;20127;-70
2022/04/14 07:37:58;;;;;;;20.80;18.65;;;35.60;84.70;;;;;;4212618;28;20367;-69
2022/04/14 07:40:05;;;;;;;21.60;19.33;;;35.50;85.20;;;;;;4214494;28;20044;-70
2022/04/14 07:42:10;;;;;;;21.15;18.95;;;35.40;84.60;;;;;;4214410;28;20044;-70
2022/04/14 07:44:20;;;;;;;21.92;19.15;;;35.30;84.60;;;;;;4212722;28;20060;-69
2022/04/14 07:46:25;;;;;;;21.80;18.65;;;35.20;84.60;;;;;;4214635;28;20099;-70
2022/04/14 07:48:30;;;;;;;23.48;19.85;;;35.10;84.20;;;;;;4214308;28;20032;-69
2022/04/14 07:50:37;;;;;;;21.30;18.92;;;35.10;84.40;;;;;;4211936;28;20292;-69
2022/04/14 07:52:45;;;;;;;21.25;19.08;;;35.00;84.00;;;;;;4210921;28;20040;-70
2022/04/14 07:54:51;;;;;;;22.05;19.75;;;34.90;84.20;;;;;;4212139;28;20384;-70
2022/04/14 07:57:00;;;;;;;22.42;18.33;;;34.80;84.20;;;;;;4214372;28;20471;-69
2022/04/14 07:59:06;;;;;;;21.02;18.80;;;34.80;83.90;;;;;;4214124;28;20121;-69
2022/04/14 08:01:11;;;;;;;20.50;18.45;;;34.80;84.40;;;;;;4211615;28;20059;-69
2022/04/14 08:03:37;;;;;;;21.02;18.55;;;34.80;83.90;;;;;;4212626;28;20044;-69
2022/04/14 08:05:44;;;;;;;20.80;18.70;;;34.70;84.20;;;;;;4214182;28;20089;-69
2022/04/14 08:07:52;;;;;;;21.90;19.67;;;34.70;84.20;;;;;;4212088;28;20036;-69
2022/04/14 08:10:01;;;;;;;21.60;19.23;;;34.70;84.50;;;;;;4214108;28;20032;-69
2022/04/14 08:12:09;;;;;;;22.00;19.83;;;34.70;84.50;;;;;;4213839;28;20063;-69
2022/04/14 08:14:15;;;;;;;20.80;18.63;;;34.70;84.30;;;;;;4227999;28;20127;-69
2022/04/14 08:16:23;;;;;;;19.80;18.00;;;34.70;84.10;;;;;;4214716;28;20044;-69
2022/04/14 08:18:30;;;;;;;21.73;19.52;;;34.70;84.40;;;;;;4210636;28;20117;-67
2022/04/14 08:20:35;;;;;;;20.65;18.70;;;34.70;84.70;;;;;;4212937;28;20052;-69
2022/04/14 08:22:55;;;;;;;22.05;19.55;;;34.80;85.00;;;;;;4214030;28;20068;-70
2022/04/14 08:25:02;;;;;;;21.60;19.30;;;34.80;85.40;;;;;;4213668;28;20032;-70
2022/04/14 08:27:10;;;;;;;22.00;19.60;;;34.80;84.60;;;;;;4214561;28;20043;-70
2022/04/14 08:29:18;;;;;;;21.77;19.63;;;34.80;84.20;;;;;;4181339;28;20040;-70
2022/04/14 08:31:25;;;;;;;25.08;20.48;;;34.80;84.40;;;;;;4214148;28;20036;-68
2022/04/14 08:33:31;;;;;;;28.13;21.85;;;34.80;84.50;;;;;;4211493;28;20658;-69
2022/04/14 08:35:42;;;;;;;26.15;21.92;;;34.80;84.40;;;;;;4213452;28;20483;-69
2022/04/14 08:37:50;;;;;;;22.25;20.05;;;34.80;83.90;;;;;;4212196;28;20548;-70
2022/04/14 08:39:59;;;;;;;22.65;20.35;;;34.70;83.60;;;;;;4196451;28;20578;-70
2022/04/14 08:42:16;;;;;;;22.83;20.63;;;34.80;83.40;;;;;;4196674;28;20044;-70
2022/04/14 08:44:27;;;;;;;22.65;20.42;;;34.80;83.10;;;;;;4197020;28;20045;-70
2022/04/14 08:46:36;;;;;;;21.38;19.23;;;34.80;83.50;;;;;;4195779;28;20045;-70
2022/04/14 08:48:47;;;;;;;21.85;19.73;;;34.90;83.30;;;;;;4210338;28;20059;-70
2022/04/14 08:50:52;;;;;;;21.60;19.30;;;34.80;82.80;;;;;;4213070;28;20387;-70
2022/04/14 08:53:11;;;;;;;22.35;18.95;;;34.90;82.60;;;;;;4213224;28;20048;-70
2022/04/14 08:55:20;;;;;;;20.65;18.55;;;34.80;82.20;;;;;;4213308;28;20044;-70
2022/04/14 08:57:26;;;;;;;19.95;17.85;;;34.80;82.30;;;;;;4210437;28;20391;-69
2022/04/14 08:59:35;;;;;;;23.23;17.08;;;34.80;82.10;;;;;;4213577;28;20052;-70
2022/04/14 09:01:43;;;;;;;19.90;17.95;;;34.70;81.50;;;;;;4210601;28;20380;-69
2022/04/14 09:03:49;;;;;;;20.38;18.05;;;34.70;82.00;;;;;;4212977;28;20040;-69
2022/04/14 09:05:57;;;;;;;20.40;18.08;;;34.60;82.20;;;;;;4194340;28;20044;-69
2022/04/14 09:08:07;;;;;;;21.35;19.25;;;34.60;82.20;;;;;;4192447;28;20098;-69
2022/04/14 09:10:15;;;;;;;22.05;19.73;;;34.50;82.00;;;;;;4178309;28;20040;-69
2022/04/14 09:12:21;;;;;;;20.80;18.70;;;34.50;81.90;;;;;;4207595;28;20048;-69
2022/04/14 09:14:29;;;;;;;20.67;18.02;;;34.50;82.10;;;;;;4193747;28;20052;-69
2022/04/14 09:16:34;;;;;;;21.65;18.25;;;34.50;82.10;;;;;;4193702;28;20608;-70
2022/04/14 09:18:40;;;;;;;20.67;18.58;;;34.50;81.20;;;;;;4192353;28;20503;-69
2022/04/14 09:20:50;;;;;;;21.40;19.20;;;34.40;81.20;;;;;;4211588;28;20048;-67
2022/04/14 09:23:20;;;;;;;24.45;19.40;;;34.40;80.90;;;;;;4209620;28;20041;-69
2022/04/14 09:25:26;;;;;;;21.67;19.40;;;34.40;80.60;;;;;;4208533;28;20477;-69
2022/04/14 09:27:39;;;;;;;23.20;19.92;;;34.40;81.00;;;;;;4194337;28;20032;-69
2022/04/14 09:29:48;;;;;;;22.60;18.90;;;34.30;81.10;;;;;;4194893;28;20057;-70
2022/04/14 09:31:54;;;;;;;22.65;18.83;;;34.30;80.80;;;;;;4193260;28;20459;-69
2022/04/14 09:34:04;;;;;;;23.40;19.33;;;34.30;80.90;;;;;;4208493;28;20048;-70
2022/04/14 09:36:27;;;;;;;25.15;20.48;;;34.30;80.60;;;;;;4182433;28;20049;-69
2022/04/14 09:38:56;;;;;;;25.00;21.60;;;34.20;80.60;;;;;;4210966;28;20131;-70
2022/04/14 09:41:05;;;;;;;23.50;20.63;;;34.10;80.60;;;;;;4194146;28;20064;-70
2022/04/14 09:43:10;;;;;;;22.70;19.48;;;34.10;80.90;;;;;;4181257;28;20059;-70
2022/04/14 09:45:22;;;;;;;22.77;20.17;;;34.10;80.80;;;;;;4213962;28;20058;-70
2022/04/14 09:47:39;;;;;;;24.63;19.25;;;34.10;80.70;;;;;;4204621;28;20048;-67
2022/04/14 09:49:48;;;;;;;22.15;19.15;;;34.10;80.50;;;;;;4208985;28;20040;-69
2022/04/14 09:52:03;;;;;;;27.13;20.58;;;34.00;80.30;;;;;;4227122;28;20040;-69
2022/04/14 09:54:27;;;;;;;57.75;24.08;;;34.00;80.60;;;;;;4161723;28;20077;-69
2022/04/14 09:56:41;;;;;;;34.67;24.67;;;34.00;80.90;;;;;;4146857;28;20279;-68
2022/04/14 09:59:08;;;;;;;25.42;22.73;;;34.00;81.70;;;;;;4138440;28;20053;-66
2022/04/14 10:01:19;;;;;;;24.02;20.85;;;33.90;81.20;;;;;;4153268;28;20049;-66
2022/04/14 10:03:25;;;;;;;24.60;21.08;;;33.90;81.40;;;;;;4133074;28;20400;-66
2022/04/14 10:05:36;;;;;;;24.90;21.00;;;33.80;81.00;;;;;;4157910;28;20069;-69
2022/04/14 10:07:58;;;;;;;33.83;26.05;;;33.80;81.40;;;;;;4160455;28;20538;-68
2022/04/14 10:10:03;;;;;;;32.42;26.85;;;33.80;81.80;;;;;;4160733;28;20088;-69
2022/04/14 10:12:25;;;;;;;37.20;26.20;;;33.80;82.10;;;;;;4159943;28;20060;-69
2022/04/14 10:14:33;;;;;;;32.08;27.20;;;33.80;82.40;;;;;;4111216;28;20054;-69
2022/04/14 10:16:39;;;;;;;31.05;25.05;;;33.80;82.70;;;;;;4160042;28;20057;-68
2022/04/14 10:18:45;;;;;;;29.48;24.05;;;33.80;82.50;;;;;;4160088;28;20046;-68
2022/04/14 10:20:52;;;;;;;29.88;23.42;;;33.80;82.50;;;;;;4143409;28;20501;-68
2022/04/14 10:22:59;;;;;;;28.15;23.23;;;33.70;82.20;;;;;;4168636;28;20049;-72
2022/04/14 10:25:07;;;;;;;28.95;21.75;;;33.70;81.50;;;;;;4165479;28;20049;-68
2022/04/14 10:27:14;;;;;;;29.75;21.92;;;33.60;81.80;;;;;;4176528;28;20060;-67
2022/04/14 10:29:19;;;;;;;30.27;23.05;;;33.60;81.90;;;;;;4176487;28;20048;-67
2022/04/14 10:31:24;;;;;;;53.67;30.38;;;33.60;81.80;;;;;;4176055;28;20571;-68
2022/04/14 10:33:31;;;;;;;51.88;29.27;;;33.60;81.90;;;;;;4144345;28;20053;-68
2022/04/14 10:35:37;;;;;;;47.70;31.33;;;33.50;81.50;;;;;;4126924;28;20069;-67
2022/04/14 10:37:46;;;;;;;39.85;26.25;;;33.50;82.00;;;;;;4142703;28;20049;-68
2022/04/14 10:39:54;;;;;;;41.78;25.73;;;33.50;81.30;;;;;;4142739;28;20049;-68
2022/04/14 10:42:00;;;;;;;41.17;29.67;;;33.40;79.50;;;;;;4125069;28;20130;-68
2022/04/14 10:44:04;;;;;;;43.38;32.50;;;33.40;79.80;;;;;;4158150;28;20049;-68
2022/04/14 10:46:17;;;;;;;38.67;29.35;;;33.40;78.70;;;;;;4176937;28;20140;-68
2022/04/14 10:48:30;;;;;;;41.45;29.05;;;33.30;78.70;;;;;;4175919;28;20483;-67